Radiosonde details



Informationen :

Serial : X5211233
Type : Vaisala RS41-NG
Date of production : 22.12.2025
Frequency : 404.800MHz
Launchsite : -
Nearest town : Salmon, US (76.1km)

Altitude (Max) : 9861m at 2026-09-05 01:46:26
Speed (Max) : 172km/h at altitude 9636m

Average speed : 150km/h
Average ascent rate : 0m/s
Average descent rate : -3m/s
Ascent rate (Max) : -3.0m/s
Descent rate (Max): -4m/s

First frame :
KE7DJD at 2026-09-05 01:46:26 at altitude 9861m (OG: 7809m)
Last frame :
KE7DJD at 2026-09-05 02:01:34 at altitude 6826m (OG: 4503m)

Flighttime : 15m8s
Ascent time : 0s
Descent time : 15m8s
Uptime : -
Killtimer : 7h21m

Distance (Straight line distance): 38km

Distance (Route):


Frames : 41


Measurement :

Temperature : -20.9°C
Humidity : 18.1%
Pressure : 0hPa


Vertical profile (SkewT) :


Elevation profile :



Receiving stations :


Receiver Frames First received Last received
KE7DJD 41 2026-09-05 01:46:26 2026-09-05 02:01:34

Share per receiver :



All frames :


Receiver Date Latitude Longitude Direction Speed Altitude Climb Temperature Humidity Pressure Voltage Killtimer Uptime BKT XDATA
KE7DJD2026-09-05 02:01:3445.16534-114.8664025°122km/h6826m-3.1m/s-20.9°C18.1%0hPa0V07:21:0000:00:0000:00:00
KE7DJD2026-09-05 02:01:1345.15980-114.8699329°115km/h6895m-3.3m/s-21.6°C18.5%0hPa0V07:21:0000:00:0000:00:00
KE7DJD2026-09-05 02:00:3145.14862-114.8788132°126km/h7040m-3.7m/s-22.6°C19.8%0hPa0V07:21:0000:00:0000:00:00
KE7DJD2026-09-05 02:00:1145.14304-114.8832432°122km/h7115m-3.9m/s-23.0°C21.8%0hPa0V07:21:0000:00:0000:00:00
KE7DJD2026-09-05 01:59:5045.13729-114.8884033°135km/h7196m-4.0m/s-23.5°C24.3%0hPa0V07:22:0000:00:0000:00:00
KE7DJD2026-09-05 01:59:2945.13128-114.8940734°141km/h7276m-3.7m/s-24.2°C26.0%0hPa0V07:22:0000:00:0000:00:00
KE7DJD2026-09-05 01:59:0845.12504-114.9000935°146km/h7354m-3.9m/s-24.6°C29.0%0hPa0V07:22:0000:00:0000:00:00
KE7DJD2026-09-05 01:58:4845.11844-114.9063131°150km/h7429m-3.5m/s-24.9°C32.0%0hPa0V07:23:0000:00:0000:00:00
KE7DJD2026-09-05 01:58:2845.11182-114.9120631°153km/h7497m-3.4m/s-25.2°C33.9%0hPa0V07:23:0000:00:0000:00:00
KE7DJD2026-09-05 01:58:0645.10512-114.9179130°153km/h7565m-3.2m/s-25.5°C32.9%0hPa0V07:24:0000:00:0000:00:00
KE7DJD2026-09-05 01:57:4645.09872-114.9234332°155km/h7631m-3.2m/s-26.1°C34.9%0hPa0V07:24:0000:00:0000:00:00
KE7DJD2026-09-05 01:57:2645.09223-114.9288334°144km/h7695m-3.4m/s-26.6°C35.9%0hPa0V07:24:0000:00:0000:00:00
KE7DJD2026-09-05 01:57:0545.08542-114.9346034°146km/h7764m-3.3m/s-27.1°C36.0%0hPa0V07:25:0000:00:0000:00:00
KE7DJD2026-09-05 01:56:4445.07883-114.9408235°157km/h7830m-3.2m/s-27.5°C35.9%0hPa0V07:25:0000:00:0000:00:00
KE7DJD2026-09-05 01:56:2445.07197-114.9464730°157km/h7893m-3.2m/s-27.7°C36.5%0hPa0V07:26:0000:00:0000:00:00
KE7DJD2026-09-05 01:56:0345.06461-114.9521431°159km/h7959m-3.2m/s-28.0°C30.4%0hPa0V07:26:0000:00:0000:00:00
KE7DJD2026-09-05 01:55:4245.05732-114.9576929°146km/h8025m-3.2m/s-28.4°C28.2%0hPa0V07:26:0000:00:0000:00:00
KE7DJD2026-09-05 01:55:2145.05029-114.9631628°146km/h8091m-3.1m/s-28.7°C22.7%0hPa0V07:27:0000:00:0000:00:00
KE7DJD2026-09-05 01:55:0145.04379-114.9685832°146km/h8153m-3.1m/s-28.9°C20.8%0hPa0V07:27:0000:00:0000:00:00
KE7DJD2026-09-05 01:54:4145.03713-114.9745134°148km/h8216m-3.1m/s-29.4°C20.8%0hPa0V07:27:0000:00:0000:00:00
KE7DJD2026-09-05 01:54:2045.03047-114.9802229°155km/h8279m-3.1m/s-29.7°C19.0%0hPa0V07:27:0000:00:0000:00:00
KE7DJD2026-09-05 01:54:0045.02361-114.9860634°159km/h8340m-3.0m/s-30.3°C20.3%0hPa0V07:27:0000:00:0000:00:00
KE7DJD2026-09-05 01:53:3945.01662-114.9918032°144km/h8405m-3.2m/s-31.0°C22.4%0hPa0V07:28:0000:00:0000:00:00
KE7DJD2026-09-05 01:53:1845.00975-114.9980633°162km/h8470m-3.1m/s-31.3°C16.4%0hPa0V07:28:0000:00:0000:00:00
KE7DJD2026-09-05 01:52:5745.00274-115.0040134°150km/h8537m-3.3m/s-31.8°C17.3%0hPa0V07:29:0000:00:0000:00:00
KE7DJD2026-09-05 01:52:3744.99638-115.0100734°148km/h8601m-3.2m/s-32.4°C17.0%0hPa0V07:29:0000:00:0000:00:00
KE7DJD2026-09-05 01:52:1644.98972-115.0165334°162km/h8670m-3.3m/s-32.9°C19.4%0hPa0V07:29:0000:00:0000:00:00
KE7DJD2026-09-05 01:51:5644.98277-115.0224231°157km/h8737m-3.3m/s-33.3°C21.7%0hPa0V07:30:0000:00:0000:00:00
KE7DJD2026-09-05 01:51:3544.97596-115.0285536°162km/h8807m-3.5m/s-33.9°C39.3%0hPa0V07:30:0000:00:0000:00:00
KE7DJD2026-09-05 01:51:1444.96895-115.0344733°146km/h8878m-3.3m/s-34.6°C40.4%0hPa0V07:31:0000:00:0000:00:00
KE7DJD2026-09-05 01:50:5444.96255-115.0406932°155km/h8945m-3.4m/s-35.0°C19.5%0hPa0V07:31:0000:00:0000:00:00
KE7DJD2026-09-05 01:50:3344.95590-115.0467337°146km/h9016m-3.1m/s-35.4°C15.6%0hPa0V07:31:0000:00:0000:00:00
KE7DJD2026-09-05 01:49:5344.94329-115.0593738°159km/h9147m-3.2m/s-36.5°C16.1%0hPa0V07:32:0000:00:0000:00:00
KE7DJD2026-09-05 01:49:3244.93637-115.0660338°150km/h9217m-3.4m/s-37.0°C16.0%0hPa0V07:33:0000:00:0000:00:00
KE7DJD2026-09-05 01:49:1144.92956-115.0731633°157km/h9285m-3.3m/s-37.5°C27.4%0hPa0V07:33:0000:00:0000:00:00
KE7DJD2026-09-05 01:48:2944.91643-115.0868739°153km/h9424m-3.5m/s-38.6°C49.6%0hPa0V07:33:0000:00:0000:00:00
KE7DJD2026-09-05 01:48:0944.91004-115.0940836°170km/h9492m-3.3m/s-39.0°C58.8%0hPa0V07:33:0000:00:0000:00:00
KE7DJD2026-09-05 01:47:4844.90324-115.1013340°166km/h9565m-3.4m/s-39.8°C63.3%0hPa0V07:34:0000:00:0000:00:00
KE7DJD2026-09-05 01:47:2844.89634-115.1084736°170km/h9636m-3.5m/s-40.1°C62.4%0hPa0V07:34:0000:00:0000:00:00
KE7DJD2026-09-05 01:47:0744.88909-115.1151434°157km/h9712m-3.7m/s-40.7°C61.4%0hPa0V07:35:0000:00:0000:00:00
KE7DJD2026-09-05 01:46:2644.87541-115.1285835°153km/h9861m-3.5m/s-42.0°C66.9%0hPa0V07:35:0000:00:0000:00:00


GPX KML Map

© wettersonde.net (DO2JMG) - 2026  -  -